Weather at Charles de Gaulle International Airport

Public forecast

Using degrees Celsius for public forecast. Weather courtesy of forecast.io.

Current aviation weather report (METAR) for Charles de Gaulle International Airport

Retrieved 2022/07/06 04:00 UTC (7 minutes ago):

LFPG 060400Z 35003KT CAVOK 13/10 Q1027 NOSIG

Aviation forecast (TAF) for Charles de Gaulle International Airport

Retrieved 2022-07-06 00:47 UTC (3 hours ago):

TAF LFPG 052300Z 0600/0706 36008KT CAVOK TX26/0615Z TN13/0604Z